• Join FlightAware (Why Join?)
  • Login
  • US Flag 
03:58PM EDT


 

Airport Tracker/Info


-or-


 

Live Flight TrackerFlight Track Log ✈ EJA982 ✈ 11-Jun-2013 ✈ KSMF - KOAK

Flight Track Log - Related Links

Times and Time Zones

All times are in EDT time to prevent confusion due to time zone crossing. See the EJA982 flight status page for this flight to view local times or setup timezone preferences in your user account.

Time Position Orientation Groundspeed Altitude Reporting Facility
EDT Latitude Longitude Course Direction KTS MPH feet Rate Location/Type
06:15PM 38.6500 -121.5667 152° Southeast 206 237 5,500  Level Northern Cal TRACON
06:16PM 38.6167 -121.5167 130° Southeast 234 269 8,900 2,340 Climbing Northern Cal TRACON
06:17PM 38.5500 -121.4333 136° Southeast 330 380 10,000 780 Climbing Northern Cal TRACON
06:18PM 38.5147 -121.3725 127° Southeast 369 425 10,200 600 Climbing Oakland Center
06:19PM 38.4397 -121.2694 133° Southeast 398 458 11,000 360 Climbing Oakland Center
06:20PM 38.3600 -121.1683 135° Southeast 397 457 11,000  Level Oakland Center
06:20PM 38.3167 -121.1500 162° South 383 441 11,000  Level Northern Cal TRACON
06:21PM 38.2497 -121.4276 152° Southeast  Level FlightAware Approximate
06:21PM 38.2167 -121.1667 187° South 368 423 11,000  Level Northern Cal TRACON
06:22PM 38.1333 -121.2500 218° Southwest 377 434 10,100 -480 Descending Northern Cal TRACON
06:23PM 38.0500 -121.3333 218° Southwest 393 452 10,000 -60 Descending Northern Cal TRACON
06:24PM 38.0122 -121.3939 232° Southwest 391 450 10,000  Level Oakland Center
06:25PM 37.9367 -121.5192 233° Southwest 386 444 10,000 -120 Level Oakland Center
06:26PM 37.8808 -121.6131 233° Southwest 330 380 9,800 -540 Descending Oakland Center
06:26PM 37.8667 -121.6500 244° Southwest 286 329 9,300 -1,380 Descending Northern Cal TRACON
06:27PM 37.8167 -121.7167 226° Southwest 264 304 8,000 -1,020 Descending Northern Cal TRACON
06:28PM 37.7667 -121.8000 233° Southwest 248 285 7,200 -960 Descending Northern Cal TRACON
06:29PM 37.7333 -121.8500 230° Southwest 230 265 6,100 -960 Descending Northern Cal TRACON
06:30PM 37.6833 -121.8667 195° South 208 239 5,400 -1,020 Descending Northern Cal TRACON
06:31PM 37.6475 -121.8892 206° Southwest 205 236 4,300 -780 Descending Oakland Center
06:32PM 37.6406 -121.9517 262° West 204 235 4,000 -180 Descending Oakland Center
06:33PM 37.6597 -122.0086 293° West 183 211 4,000 -540 Level Oakland Center
06:34PM 37.6800 -122.0725 292° West 168 193 2,900 -1,080 Descending Oakland Center
06:35PM 37.6975 -122.1231 294° West 162 186 1,800 -1,080 Descending Oakland Center
06:36PM 37.7167 -122.1667 299° West 127 146 600 -840 Descending Northern Cal TRACON
06:37PM 37.7333 -122.2167 293° West 119 137 100 -540 Descending Northern Cal TRACON
06:39PM 37.7167 -122.2167 270° West  Level FlightAware Approximate
06:46PM 37.7213 -122.2207 270° West  Level Estimated